SBI771 UNKL-UNNT
Flight info
| Callsign | SBI771 |
|---|---|
| Flight time | 1h 4m |
| Altitude | 34000 |
| Route | K0837F340 DCT APRUS B926 NATIR DCT |
| Aircraft | A321/M-UUDD/L |
Departure
| Time | 2026-05-06 15:19 |
|---|---|
| Airport | Krasnoyarsk International Airport (UNKL) |
Arrival
| Time | 2026-05-06 16:23 |
|---|---|
| Airport | Novosibirsk Tolmachevo Airport (UNNT) |
| Time | Latitude | Longitude | Altitude | Speed | Heading |
|---|---|---|---|---|---|
| 2026-05-06 15:00 | 56.17929 | 92.48617 | 947 ft | 0 kts | 22° |
| 2026-05-06 15:12 | 56.17928 | 92.48616 | 947 ft | 1 kts | 22° |
| 2026-05-06 15:12 | 56.17915 | 92.48606 | 947 ft | 2 kts | 22° |
| 2026-05-06 15:13 | 56.17900 | 92.48595 | 947 ft | 2 kts | 22° |
| 2026-05-06 15:13 | 56.17887 | 92.48586 | 947 ft | 1 kts | 22° |
| 2026-05-06 15:13 | 56.17878 | 92.48579 | 947 ft | 2 kts | 9° |
| 2026-05-06 15:13 | 56.17864 | 92.48581 | 947 ft | 2 kts | 341° |
| 2026-05-06 15:14 | 56.17851 | 92.48593 | 947 ft | 2 kts | 317° |
| 2026-05-06 15:14 | 56.17843 | 92.48611 | 947 ft | 0 kts | 295° |
| 2026-05-06 15:14 | 56.17841 | 92.48621 | 947 ft | 1 kts | 292° |
| 2026-05-06 15:14 | 56.17840 | 92.48624 | 947 ft | 0 kts | 292° |
| 2026-05-06 15:16 | 56.17852 | 92.48573 | 947 ft | 8 kts | 292° |
| 2026-05-06 15:16 | 56.17882 | 92.48426 | 947 ft | 16 kts | 290° |
| 2026-05-06 15:16 | 56.17941 | 92.48241 | 947 ft | 17 kts | 310° |
| 2026-05-06 15:16 | 56.18006 | 92.48071 | 947 ft | 10 kts | 286° |
| 2026-05-06 15:17 | 56.17973 | 92.47977 | 947 ft | 11 kts | 211° |
| 2026-05-06 15:17 | 56.17879 | 92.47902 | 947 ft | 17 kts | 202° |
| 2026-05-06 15:17 | 56.17765 | 92.47817 | 947 ft | 17 kts | 202° |
| 2026-05-06 15:17 | 56.17656 | 92.47810 | 947 ft | 16 kts | 128° |
| 2026-05-06 15:18 | 56.17604 | 92.48018 | 947 ft | 30 kts | 113° |
| 2026-05-06 15:18 | 56.17425 | 92.48772 | 947 ft | 98 kts | 113° |
| 2026-05-06 15:18 | 56.17079 | 92.50217 | 952 ft | 151 kts | 113° |
| 2026-05-06 15:18 | 56.16642 | 92.52042 | 1290 ft | 165 kts | 115° |
| 2026-05-06 15:19 | 56.16179 | 92.53951 | 1800 ft | 173 kts | 116° |
| 2026-05-06 15:19 | 56.15688 | 92.55965 | 2364 ft | 181 kts | 116° |
| 2026-05-06 15:19 | 56.15189 | 92.58077 | 2804 ft | 188 kts | 116° |
| 2026-05-06 15:19 | 56.14671 | 92.60296 | 3088 ft | 199 kts | 116° |
| 2026-05-06 15:20 | 56.14112 | 92.62629 | 3348 ft | 211 kts | 117° |
| 2026-05-06 15:20 | 56.13512 | 92.65105 | 3615 ft | 225 kts | 118° |
| 2026-05-06 15:20 | 56.12843 | 92.67781 | 3819 ft | 242 kts | 123° |
| 2026-05-06 15:20 | 56.11694 | 92.69978 | 4097 ft | 248 kts | 155° |
| 2026-05-06 15:21 | 56.10050 | 92.70715 | 4430 ft | 253 kts | 186° |
| 2026-05-06 15:21 | 56.08374 | 92.69779 | 4980 ft | 253 kts | 216° |
| 2026-05-06 15:21 | 56.07052 | 92.67767 | 5639 ft | 253 kts | 224° |
| 2026-05-06 15:21 | 56.05732 | 92.65684 | 6271 ft | 257 kts | 224° |
| 2026-05-06 15:22 | 56.04386 | 92.63602 | 6925 ft | 259 kts | 224° |
| 2026-05-06 15:22 | 56.03026 | 92.61507 | 7557 ft | 262 kts | 224° |
| 2026-05-06 15:22 | 56.01652 | 92.59399 | 8200 ft | 264 kts | 225° |
| 2026-05-06 15:22 | 56.00256 | 92.57261 | 8833 ft | 267 kts | 225° |
| 2026-05-06 15:23 | 55.98850 | 92.55108 | 9448 ft | 269 kts | 226° |
| 2026-05-06 15:23 | 55.97436 | 92.52945 | 10078 ft | 271 kts | 226° |
| 2026-05-06 15:23 | 55.96041 | 92.50676 | 10498 ft | 278 kts | 234° |
| 2026-05-06 15:23 | 55.95095 | 92.47626 | 10756 ft | 285 kts | 256° |
| 2026-05-06 15:24 | 55.94872 | 92.44098 | 11016 ft | 296 kts | 274° |
| 2026-05-06 15:24 | 55.95010 | 92.40390 | 11278 ft | 309 kts | 275° |
| 2026-05-06 15:24 | 55.95112 | 92.37588 | 11524 ft | 316 kts | 274° |
| 2026-05-06 15:24 | 55.95237 | 92.34018 | 11990 ft | 320 kts | 274° |
| 2026-05-06 15:25 | 55.95371 | 92.30067 | 12529 ft | 323 kts | 273° |
| 2026-05-06 15:25 | 55.95504 | 92.26079 | 13077 ft | 326 kts | 273° |
| 2026-05-06 15:25 | 55.95641 | 92.21863 | 13618 ft | 329 kts | 273° |
| 2026-05-06 15:25 | 55.95697 | 92.20128 | 13836 ft | 330 kts | 273° |
| 2026-05-06 15:26 | 55.95826 | 92.16071 | 14350 ft | 333 kts | 273° |
| 2026-05-06 15:26 | 55.95956 | 92.11945 | 14876 ft | 335 kts | 273° |
| 2026-05-06 15:26 | 55.96086 | 92.07800 | 15394 ft | 336 kts | 273° |
| 2026-05-06 15:26 | 55.96214 | 92.03635 | 15895 ft | 338 kts | 273° |
| 2026-05-06 15:27 | 55.96340 | 91.99477 | 16364 ft | 341 kts | 273° |
| 2026-05-06 15:27 | 55.96467 | 91.95257 | 16830 ft | 343 kts | 273° |
| 2026-05-06 15:27 | 55.96593 | 91.91009 | 17299 ft | 345 kts | 272° |
| 2026-05-06 15:27 | 55.96718 | 91.86737 | 17741 ft | 347 kts | 272° |
| 2026-05-06 15:28 | 55.96843 | 91.82433 | 18177 ft | 349 kts | 272° |
| 2026-05-06 15:28 | 55.96965 | 91.78158 | 18614 ft | 351 kts | 272° |
| 2026-05-06 15:28 | 55.97087 | 91.73775 | 19039 ft | 353 kts | 272° |
| 2026-05-06 15:28 | 55.97208 | 91.69398 | 19450 ft | 355 kts | 272° |
| 2026-05-06 15:29 | 55.97254 | 91.67735 | 19600 ft | 356 kts | 272° |
| 2026-05-06 15:29 | 55.97366 | 91.63618 | 19980 ft | 358 kts | 272° |
| 2026-05-06 15:29 | 55.97487 | 91.59162 | 20381 ft | 360 kts | 272° |
| 2026-05-06 15:29 | 55.97605 | 91.54747 | 20776 ft | 361 kts | 272° |
| 2026-05-06 15:30 | 55.97723 | 91.50248 | 21157 ft | 364 kts | 272° |
| 2026-05-06 15:30 | 55.97841 | 91.45720 | 21504 ft | 367 kts | 272° |
| 2026-05-06 15:30 | 55.97955 | 91.41226 | 21865 ft | 369 kts | 272° |
| 2026-05-06 15:30 | 55.98070 | 91.36617 | 22248 ft | 370 kts | 272° |
| 2026-05-06 15:31 | 55.98183 | 91.32067 | 22602 ft | 372 kts | 271° |
| 2026-05-06 15:31 | 55.98242 | 91.27465 | 22931 ft | 375 kts | 269° |
| 2026-05-06 15:31 | 55.98101 | 91.22779 | 23296 ft | 376 kts | 264° |
| 2026-05-06 15:32 | 55.97257 | 91.13612 | 23995 ft | 380 kts | 259° |
| 2026-05-06 15:32 | 55.96719 | 91.08992 | 24347 ft | 382 kts | 258° |
| 2026-05-06 15:32 | 55.96174 | 91.04355 | 24714 ft | 383 kts | 258° |
| 2026-05-06 15:32 | 55.95625 | 90.99710 | 25055 ft | 384 kts | 258° |
| 2026-05-06 15:33 | 55.95073 | 90.95063 | 25402 ft | 385 kts | 258° |
| 2026-05-06 15:33 | 55.94517 | 90.90402 | 25757 ft | 386 kts | 258° |
| 2026-05-06 15:33 | 55.93962 | 90.85747 | 26068 ft | 388 kts | 258° |
| 2026-05-06 15:33 | 55.93400 | 90.81055 | 26367 ft | 390 kts | 258° |
| 2026-05-06 15:34 | 55.92835 | 90.76354 | 26657 ft | 391 kts | 258° |
| 2026-05-06 15:34 | 55.92261 | 90.71594 | 26966 ft | 392 kts | 258° |
| 2026-05-06 15:34 | 55.91692 | 90.66895 | 27256 ft | 393 kts | 258° |
| 2026-05-06 15:34 | 55.91112 | 90.62122 | 27573 ft | 394 kts | 258° |
| 2026-05-06 15:35 | 55.90532 | 90.57357 | 27837 ft | 396 kts | 258° |
| 2026-05-06 15:35 | 55.89951 | 90.52616 | 28083 ft | 397 kts | 258° |
| 2026-05-06 15:35 | 55.89363 | 90.47828 | 28359 ft | 398 kts | 258° |
| 2026-05-06 15:35 | 55.88768 | 90.43001 | 28648 ft | 398 kts | 258° |
| 2026-05-06 15:36 | 55.88174 | 90.38188 | 28902 ft | 399 kts | 258° |
| 2026-05-06 15:36 | 55.87580 | 90.33396 | 29209 ft | 399 kts | 257° |
| 2026-05-06 15:36 | 55.86980 | 90.28584 | 29570 ft | 397 kts | 257° |
| 2026-05-06 15:36 | 55.86387 | 90.23852 | 29937 ft | 396 kts | 257° |
| 2026-05-06 15:37 | 55.85791 | 90.19098 | 30296 ft | 394 kts | 257° |
| 2026-05-06 15:37 | 55.85195 | 90.14337 | 30648 ft | 392 kts | 257° |
| 2026-05-06 15:37 | 55.84610 | 90.09701 | 30976 ft | 390 kts | 257° |
| 2026-05-06 15:37 | 55.84013 | 90.04996 | 31270 ft | 389 kts | 257° |
| 2026-05-06 15:38 | 55.83421 | 90.00335 | 31510 ft | 389 kts | 257° |
| 2026-05-06 15:38 | 55.82827 | 89.95676 | 31725 ft | 390 kts | 257° |
| 2026-05-06 15:38 | 55.82223 | 89.90964 | 31969 ft | 390 kts | 257° |
| 2026-05-06 15:38 | 55.81620 | 89.86256 | 32189 ft | 390 kts | 257° |
| 2026-05-06 15:39 | 55.81017 | 89.81572 | 32363 ft | 391 kts | 257° |
| 2026-05-06 15:39 | 55.80410 | 89.76869 | 32548 ft | 392 kts | 257° |
| 2026-05-06 15:39 | 55.79807 | 89.72214 | 32717 ft | 394 kts | 257° |
| 2026-05-06 15:39 | 55.79185 | 89.67430 | 32883 ft | 395 kts | 257° |
| 2026-05-06 15:40 | 55.78569 | 89.62706 | 33081 ft | 395 kts | 257° |
| 2026-05-06 15:40 | 55.77956 | 89.58020 | 33261 ft | 395 kts | 257° |
| 2026-05-06 15:40 | 55.77338 | 89.53310 | 33418 ft | 396 kts | 257° |
| 2026-05-06 15:40 | 55.76709 | 89.48527 | 33576 ft | 396 kts | 257° |
| 2026-05-06 15:41 | 55.76078 | 89.43760 | 33752 ft | 397 kts | 257° |
| 2026-05-06 15:41 | 55.75452 | 89.39046 | 33878 ft | 398 kts | 257° |
| 2026-05-06 15:41 | 55.74179 | 89.29481 | 33880 ft | 398 kts | 256° |
| 2026-05-06 15:42 | 55.72915 | 89.20036 | 33879 ft | 397 kts | 256° |
| 2026-05-06 15:42 | 55.71632 | 89.10541 | 33880 ft | 396 kts | 256° |
| 2026-05-06 15:43 | 55.70349 | 89.01112 | 33882 ft | 396 kts | 255° |
| 2026-05-06 15:43 | 55.69064 | 88.91654 | 33883 ft | 396 kts | 255° |
| 2026-05-06 15:44 | 55.67780 | 88.82238 | 33892 ft | 395 kts | 256° |
| 2026-05-06 15:44 | 55.66485 | 88.72813 | 33889 ft | 397 kts | 256° |
| 2026-05-06 15:45 | 55.65180 | 88.63364 | 33880 ft | 396 kts | 255° |
| 2026-05-06 15:45 | 55.63861 | 88.53891 | 33879 ft | 398 kts | 255° |
| 2026-05-06 15:46 | 55.62542 | 88.44464 | 33882 ft | 397 kts | 256° |
| 2026-05-06 15:46 | 55.61205 | 88.34981 | 33884 ft | 398 kts | 255° |
| 2026-05-06 15:47 | 55.59870 | 88.25567 | 33882 ft | 398 kts | 255° |
| 2026-05-06 15:47 | 55.58522 | 88.16119 | 33879 ft | 398 kts | 255° |
| 2026-05-06 15:48 | 55.57170 | 88.06681 | 33874 ft | 399 kts | 255° |
| 2026-05-06 15:48 | 55.55801 | 87.97197 | 33864 ft | 399 kts | 255° |
| 2026-05-06 15:49 | 55.54428 | 87.87751 | 33864 ft | 399 kts | 255° |
| 2026-05-06 15:49 | 55.53048 | 87.78311 | 33844 ft | 399 kts | 255° |
| 2026-05-06 15:50 | 55.51654 | 87.68832 | 33846 ft | 401 kts | 255° |
| 2026-05-06 15:50 | 55.50255 | 87.59390 | 33857 ft | 401 kts | 255° |
| 2026-05-06 15:51 | 55.48838 | 87.49875 | 33872 ft | 401 kts | 255° |
| 2026-05-06 15:51 | 55.47416 | 87.40405 | 33861 ft | 401 kts | 255° |
| 2026-05-06 15:52 | 55.45988 | 87.30984 | 33860 ft | 402 kts | 254° |
| 2026-05-06 15:52 | 55.44546 | 87.21503 | 33867 ft | 402 kts | 254° |
| 2026-05-06 15:53 | 55.43103 | 87.12073 | 33865 ft | 402 kts | 254° |
| 2026-05-06 15:53 | 55.41639 | 87.02564 | 33859 ft | 403 kts | 254° |
| 2026-05-06 15:54 | 55.40176 | 86.93121 | 33857 ft | 403 kts | 254° |
| 2026-05-06 15:54 | 55.38702 | 86.83672 | 33859 ft | 403 kts | 254° |
| 2026-05-06 15:55 | 55.37220 | 86.74214 | 33856 ft | 403 kts | 254° |
| 2026-05-06 15:55 | 55.35727 | 86.64740 | 33855 ft | 405 kts | 254° |
| 2026-05-06 15:56 | 55.34218 | 86.55222 | 33861 ft | 405 kts | 254° |
| 2026-05-06 15:56 | 55.32706 | 86.45740 | 33873 ft | 405 kts | 254° |
| 2026-05-06 15:57 | 55.31186 | 86.36245 | 33865 ft | 406 kts | 254° |
| 2026-05-06 15:57 | 55.29662 | 86.26805 | 33860 ft | 405 kts | 253° |
| 2026-05-06 15:58 | 55.28154 | 86.17342 | 33867 ft | 405 kts | 255° |
| 2026-05-06 15:58 | 55.27044 | 86.07675 | 33877 ft | 405 kts | 261° |
| 2026-05-06 15:59 | 55.26449 | 85.97856 | 33868 ft | 406 kts | 264° |
| 2026-05-06 15:59 | 55.25973 | 85.88062 | 33702 ft | 406 kts | 264° |
| 2026-05-06 16:00 | 55.25734 | 85.83138 | 33235 ft | 406 kts | 264° |
| 2026-05-06 16:00 | 55.25496 | 85.78276 | 32731 ft | 402 kts | 264° |
| 2026-05-06 16:00 | 55.25258 | 85.73457 | 32249 ft | 399 kts | 264° |
| 2026-05-06 16:00 | 55.25019 | 85.68674 | 31748 ft | 396 kts | 263° |
| 2026-05-06 16:01 | 55.24777 | 85.63854 | 31252 ft | 397 kts | 263° |
| 2026-05-06 16:01 | 55.24532 | 85.59051 | 30761 ft | 398 kts | 263° |
| 2026-05-06 16:01 | 55.24287 | 85.54247 | 30272 ft | 398 kts | 263° |
| 2026-05-06 16:01 | 55.24041 | 85.49490 | 29734 ft | 399 kts | 263° |
| 2026-05-06 16:02 | 55.23787 | 85.44633 | 29194 ft | 401 kts | 263° |
| 2026-05-06 16:02 | 55.23536 | 85.39840 | 28663 ft | 402 kts | 263° |
| 2026-05-06 16:02 | 55.23278 | 85.34950 | 28120 ft | 398 kts | 263° |
| 2026-05-06 16:02 | 55.23024 | 85.30179 | 27588 ft | 394 kts | 263° |
| 2026-05-06 16:03 | 55.22772 | 85.25455 | 27057 ft | 391 kts | 263° |
| 2026-05-06 16:03 | 55.22519 | 85.20769 | 26531 ft | 388 kts | 263° |
| 2026-05-06 16:03 | 55.22265 | 85.16099 | 25997 ft | 386 kts | 263° |
| 2026-05-06 16:03 | 55.22012 | 85.11463 | 25473 ft | 383 kts | 263° |
| 2026-05-06 16:04 | 55.21759 | 85.06886 | 24935 ft | 380 kts | 263° |
| 2026-05-06 16:04 | 55.21507 | 85.02345 | 24413 ft | 376 kts | 263° |
| 2026-05-06 16:04 | 55.21254 | 84.97823 | 23870 ft | 374 kts | 263° |
| 2026-05-06 16:04 | 55.21001 | 84.93317 | 23335 ft | 370 kts | 263° |
| 2026-05-06 16:05 | 55.20746 | 84.88854 | 22768 ft | 369 kts | 263° |
| 2026-05-06 16:05 | 55.20493 | 84.84444 | 22216 ft | 366 kts | 264° |
| 2026-05-06 16:05 | 55.20239 | 84.80036 | 21671 ft | 364 kts | 264° |
| 2026-05-06 16:05 | 55.19987 | 84.75699 | 21110 ft | 362 kts | 263° |
| 2026-05-06 16:06 | 55.19627 | 84.71337 | 20556 ft | 359 kts | 260° |
| 2026-05-06 16:06 | 55.19122 | 84.67114 | 20046 ft | 356 kts | 257° |
| 2026-05-06 16:06 | 55.18476 | 84.62978 | 19583 ft | 356 kts | 255° |
| 2026-05-06 16:06 | 55.17773 | 84.58860 | 19133 ft | 354 kts | 255° |
| 2026-05-06 16:07 | 55.17070 | 84.54766 | 18693 ft | 353 kts | 255° |
| 2026-05-06 16:07 | 55.16363 | 84.50663 | 18260 ft | 351 kts | 255° |
| 2026-05-06 16:07 | 55.15669 | 84.46641 | 17833 ft | 349 kts | 255° |
| 2026-05-06 16:07 | 55.14970 | 84.42614 | 17408 ft | 347 kts | 255° |
| 2026-05-06 16:08 | 55.14267 | 84.38568 | 16979 ft | 345 kts | 255° |
| 2026-05-06 16:08 | 55.13575 | 84.34597 | 16568 ft | 343 kts | 254° |
| 2026-05-06 16:08 | 55.12880 | 84.30618 | 16202 ft | 342 kts | 254° |
| 2026-05-06 16:08 | 55.12189 | 84.26662 | 15831 ft | 342 kts | 254° |
| 2026-05-06 16:09 | 55.11500 | 84.22733 | 15447 ft | 341 kts | 255° |
| 2026-05-06 16:09 | 55.10811 | 84.18807 | 15084 ft | 339 kts | 254° |
| 2026-05-06 16:09 | 55.10120 | 84.14887 | 14704 ft | 338 kts | 254° |
| 2026-05-06 16:09 | 55.09438 | 84.11028 | 14330 ft | 336 kts | 254° |
| 2026-05-06 16:10 | 55.08757 | 84.07147 | 13960 ft | 334 kts | 255° |
| 2026-05-06 16:10 | 55.08189 | 84.03200 | 13590 ft | 333 kts | 259° |
| 2026-05-06 16:10 | 55.07800 | 83.99247 | 13212 ft | 330 kts | 263° |
| 2026-05-06 16:10 | 55.07542 | 83.95321 | 12847 ft | 328 kts | 265° |
| 2026-05-06 16:11 | 55.07298 | 83.91373 | 12479 ft | 327 kts | 265° |
| 2026-05-06 16:11 | 55.07057 | 83.87455 | 12110 ft | 327 kts | 265° |
| 2026-05-06 16:11 | 55.06817 | 83.83549 | 11743 ft | 326 kts | 265° |
| 2026-05-06 16:11 | 55.06575 | 83.79640 | 11367 ft | 325 kts | 265° |
| 2026-05-06 16:12 | 55.06331 | 83.75734 | 10988 ft | 319 kts | 265° |
| 2026-05-06 16:12 | 55.06093 | 83.71956 | 10614 ft | 314 kts | 265° |
| 2026-05-06 16:12 | 55.05856 | 83.68211 | 10198 ft | 308 kts | 265° |
| 2026-05-06 16:12 | 55.05625 | 83.64602 | 9753 ft | 300 kts | 266° |
| 2026-05-06 16:13 | 55.05399 | 83.61053 | 9312 ft | 292 kts | 265° |
| 2026-05-06 16:13 | 55.05176 | 83.57580 | 8936 ft | 282 kts | 265° |
| 2026-05-06 16:13 | 55.04962 | 83.54255 | 8559 ft | 273 kts | 265° |
| 2026-05-06 16:13 | 55.04756 | 83.51054 | 8180 ft | 266 kts | 265° |
| 2026-05-06 16:14 | 55.04551 | 83.47897 | 7802 ft | 260 kts | 265° |
| 2026-05-06 16:14 | 55.04346 | 83.44756 | 7423 ft | 258 kts | 265° |
| 2026-05-06 16:14 | 55.04145 | 83.41701 | 7078 ft | 256 kts | 265° |
| 2026-05-06 16:14 | 55.03944 | 83.38657 | 6802 ft | 251 kts | 265° |
| 2026-05-06 16:15 | 55.03748 | 83.35688 | 6524 ft | 246 kts | 265° |
| 2026-05-06 16:15 | 55.03593 | 83.32749 | 6244 ft | 242 kts | 268° |
| 2026-05-06 16:15 | 55.03560 | 83.29830 | 5971 ft | 238 kts | 270° |
| 2026-05-06 16:15 | 55.03545 | 83.26980 | 5690 ft | 235 kts | 270° |
| 2026-05-06 16:16 | 55.03532 | 83.24190 | 5420 ft | 231 kts | 270° |
| 2026-05-06 16:16 | 55.03517 | 83.21432 | 5139 ft | 225 kts | 271° |
| 2026-05-06 16:16 | 55.03502 | 83.18764 | 4856 ft | 218 kts | 271° |
| 2026-05-06 16:16 | 55.03487 | 83.16147 | 4572 ft | 211 kts | 271° |
| 2026-05-06 16:17 | 55.03471 | 83.13648 | 4362 ft | 200 kts | 271° |
| 2026-05-06 16:17 | 55.03457 | 83.11292 | 4135 ft | 191 kts | 272° |
| 2026-05-06 16:17 | 55.03442 | 83.09009 | 3852 ft | 185 kts | 272° |
| 2026-05-06 16:17 | 55.03428 | 83.06813 | 3572 ft | 180 kts | 272° |
| 2026-05-06 16:18 | 55.03412 | 83.04662 | 3291 ft | 176 kts | 272° |
| 2026-05-06 16:18 | 55.03399 | 83.02556 | 3024 ft | 176 kts | 272° |
| 2026-05-06 16:18 | 55.03385 | 83.00418 | 2751 ft | 174 kts | 272° |
| 2026-05-06 16:18 | 55.03370 | 82.98347 | 2477 ft | 173 kts | 272° |
| 2026-05-06 16:19 | 55.03362 | 82.96260 | 2204 ft | 171 kts | 275° |
| 2026-05-06 16:19 | 55.03468 | 82.94200 | 1996 ft | 170 kts | 276° |
| 2026-05-06 16:19 | 55.03491 | 82.92152 | 1990 ft | 167 kts | 271° |
| 2026-05-06 16:19 | 55.03425 | 82.90251 | 1966 ft | 149 kts | 269° |
| 2026-05-06 16:20 | 55.03340 | 82.88512 | 1947 ft | 141 kts | 268° |
| 2026-05-06 16:20 | 55.03225 | 82.86817 | 1958 ft | 141 kts | 266° |
| 2026-05-06 16:20 | 55.03087 | 82.85130 | 1968 ft | 141 kts | 265° |
| 2026-05-06 16:20 | 55.02936 | 82.83443 | 1971 ft | 141 kts | 265° |
| 2026-05-06 16:21 | 55.02778 | 82.81749 | 1949 ft | 142 kts | 265° |
| 2026-05-06 16:21 | 55.02622 | 82.80070 | 1766 ft | 141 kts | 265° |
| 2026-05-06 16:21 | 55.02470 | 82.78391 | 1560 ft | 140 kts | 264° |
| 2026-05-06 16:21 | 55.02320 | 82.76719 | 1381 ft | 140 kts | 264° |
| 2026-05-06 16:22 | 55.02150 | 82.75056 | 1182 ft | 139 kts | 263° |
| 2026-05-06 16:22 | 55.01989 | 82.73384 | 1006 ft | 139 kts | 263° |
| 2026-05-06 16:22 | 55.01848 | 82.71721 | 831 ft | 139 kts | 264° |
| 2026-05-06 16:22 | 55.01714 | 82.70070 | 660 ft | 138 kts | 263° |
| 2026-05-06 16:23 | 55.01561 | 82.68420 | 476 ft | 138 kts | 261° |
| 2026-05-06 16:23 | 55.01408 | 82.66844 | 373 ft | 118 kts | 261° |
| 2026-05-06 16:23 | 55.01306 | 82.65726 | 373 ft | 68 kts | 260° |
| 2026-05-06 16:23 | 55.01250 | 82.65130 | 373 ft | 18 kts | 259° |
| 2026-05-06 16:24 | 55.01153 | 82.65065 | 373 ft | 16 kts | 170° |
| 2026-05-06 16:24 | 55.01105 | 82.65080 | 373 ft | 6 kts | 170° |
| 2026-05-06 16:24 | 55.01057 | 82.65094 | 373 ft | 7 kts | 171° |
| 2026-05-06 16:24 | 55.01026 | 82.65102 | 373 ft | 0 kts | 172° |
| 2026-05-06 16:25 | 55.01023 | 82.65103 | 373 ft | 3 kts | 172° |
| 2026-05-06 16:25 | 55.00969 | 82.65116 | 373 ft | 10 kts | 172° |
| 2026-05-06 16:25 | 55.00899 | 82.65146 | 373 ft | 10 kts | 135° |
| 2026-05-06 16:25 | 55.00887 | 82.65288 | 373 ft | 14 kts | 85° |
| 2026-05-06 16:26 | 55.00902 | 82.65478 | 373 ft | 19 kts | 80° |
| 2026-05-06 16:26 | 55.00925 | 82.65731 | 373 ft | 21 kts | 82° |
| 2026-05-06 16:26 | 55.00948 | 82.65999 | 373 ft | 25 kts | 82° |
| 2026-05-06 16:26 | 55.00985 | 82.66254 | 373 ft | 18 kts | 58° |
| 2026-05-06 16:27 | 55.01036 | 82.66443 | 373 ft | 11 kts | 71° |
| 2026-05-06 16:27 | 55.01045 | 82.66487 | 373 ft | 0 kts | 69° |
| 2026-05-06 16:27 | 55.01051 | 82.66513 | 373 ft | 4 kts | 72° |
| 2026-05-06 16:27 | 55.01039 | 82.66576 | 373 ft | 1 kts | 149° |
| 2026-05-06 16:28 | 55.01024 | 82.66582 | 373 ft | 2 kts | 168° |
| 2026-05-06 16:28 | 55.01013 | 82.66586 | 373 ft | 0 kts | 169° |